sensor_id;sensor_type;location;lat;lon;timestamp;P1;durP1;ratioP1;P2;durP2;ratioP2
23187;SDS011;11762;59.878;17.686;2022-12-18T00:02:21;23.97;;;11.77;;
23187;SDS011;11762;59.878;17.686;2022-12-18T00:04:48;25.47;;;11.30;;
23187;SDS011;11762;59.878;17.686;2022-12-18T00:07:16;26.57;;;11.33;;
23187;SDS011;11762;59.878;17.686;2022-12-18T00:09:43;22.57;;;9.80;;
23187;SDS011;11762;59.878;17.686;2022-12-18T00:12:11;29.30;;;12.23;;
23187;SDS011;11762;59.878;17.686;2022-12-18T00:14:38;27.67;;;11.07;;
23187;SDS011;11762;59.878;17.686;2022-12-18T00:17:05;31.00;;;11.33;;
23187;SDS011;11762;59.878;17.686;2022-12-18T00:19:32;23.50;;;11.50;;
23187;SDS011;11762;59.878;17.686;2022-12-18T00:21:59;25.93;;;10.67;;
23187;SDS011;11762;59.878;17.686;2022-12-18T00:24:28;21.63;;;10.70;;
23187;SDS011;11762;59.878;17.686;2022-12-18T00:26:55;25.57;;;12.00;;
23187;SDS011;11762;59.878;17.686;2022-12-18T00:29:22;26.23;;;10.70;;
23187;SDS011;11762;59.878;17.686;2022-12-18T00:31:49;26.67;;;11.23;;
23187;SDS011;11762;59.878;17.686;2022-12-18T00:34:17;24.97;;;11.20;;
23187;SDS011;11762;59.878;17.686;2022-12-18T00:36:44;27.93;;;12.10;;
23187;SDS011;11762;59.878;17.686;2022-12-18T00:39:13;23.13;;;10.43;;
23187;SDS011;11762;59.878;17.686;2022-12-18T00:41:42;28.90;;;11.43;;
23187;SDS011;11762;59.878;17.686;2022-12-18T00:44:26;26.03;;;11.87;;
23187;SDS011;11762;59.878;17.686;2022-12-18T00:46:53;25.17;;;10.60;;
23187;SDS011;11762;59.878;17.686;2022-12-18T00:49:20;27.63;;;10.90;;
23187;SDS011;11762;59.878;17.686;2022-12-18T02:56:36;25.63;;;9.60;;
23187;SDS011;11762;59.878;17.686;2022-12-18T02:59:08;20.47;;;9.17;;
23187;SDS011;11762;59.878;17.686;2022-12-18T03:01:41;21.47;;;9.90;;
23187;SDS011;11762;59.878;17.686;2022-12-18T03:04:17;25.13;;;10.00;;
23187;SDS011;11762;59.878;17.686;2022-12-18T03:06:53;17.47;;;8.93;;
23187;SDS011;11762;59.878;17.686;2022-12-18T03:09:24;21.00;;;8.90;;
23187;SDS011;11762;59.878;17.686;2022-12-18T03:12:00;30.93;;;9.90;;
23187;SDS011;11762;59.878;17.686;2022-12-18T03:14:50;19.70;;;9.20;;
23187;SDS011;11762;59.878;17.686;2022-12-18T03:17:23;18.97;;;9.30;;
23187;SDS011;11762;59.878;17.686;2022-12-18T03:19:52;21.23;;;9.70;;
23187;SDS011;11762;59.878;17.686;2022-12-18T03:22:23;19.63;;;9.70;;
23187;SDS011;11762;59.878;17.686;2022-12-18T03:24:52;17.70;;;9.23;;
23187;SDS011;11762;59.878;17.686;2022-12-18T03:27:23;22.13;;;9.63;;
23187;SDS011;11762;59.878;17.686;2022-12-18T03:29:54;22.30;;;10.00;;
23187;SDS011;11762;59.878;17.686;2022-12-18T03:32:33;22.30;;;9.87;;
23187;SDS011;11762;59.878;17.686;2022-12-18T03:35:04;21.03;;;9.33;;
23187;SDS011;11762;59.878;17.686;2022-12-18T03:37:32;19.77;;;9.10;;
23187;SDS011;11762;59.878;17.686;2022-12-18T03:40:00;24.27;;;9.93;;
23187;SDS011;11762;59.878;17.686;2022-12-18T03:42:29;25.20;;;9.90;;
23187;SDS011;11762;59.878;17.686;2022-12-18T03:45:05;22.23;;;10.17;;
23187;SDS011;11762;59.878;17.686;2022-12-18T03:47:38;19.90;;;9.00;;
23187;SDS011;11762;59.878;17.686;2022-12-18T03:50:13;28.03;;;10.23;;
23187;SDS011;11762;59.878;17.686;2022-12-18T03:52:45;29.03;;;10.33;;
23187;SDS011;11762;59.878;17.686;2022-12-18T03:55:17;19.13;;;9.67;;
23187;SDS011;11762;59.878;17.686;2022-12-18T03:57:47;23.50;;;10.20;;
23187;SDS011;11762;59.878;17.686;2022-12-18T04:00:16;19.83;;;9.60;;
23187;SDS011;11762;59.878;17.686;2022-12-18T04:02:45;24.20;;;10.80;;
23187;SDS011;11762;59.878;17.686;2022-12-18T04:05:15;22.33;;;10.23;;
23187;SDS011;11762;59.878;17.686;2022-12-18T04:07:43;19.47;;;9.70;;
23187;SDS011;11762;59.878;17.686;2022-12-18T04:10:13;22.50;;;10.33;;
23187;SDS011;11762;59.878;17.686;2022-12-18T04:12:42;27.17;;;10.97;;
23187;SDS011;11762;59.878;17.686;2022-12-18T04:15:10;24.23;;;9.53;;
23187;SDS011;11762;59.878;17.686;2022-12-18T04:17:38;24.40;;;10.10;;
23187;SDS011;11762;59.878;17.686;2022-12-18T04:20:13;28.50;;;11.00;;
23187;SDS011;11762;59.878;17.686;2022-12-18T04:22:40;20.73;;;10.03;;
23187;SDS011;11762;59.878;17.686;2022-12-18T04:25:07;22.30;;;9.57;;
23187;SDS011;11762;59.878;17.686;2022-12-18T04:27:37;20.27;;;10.17;;
23187;SDS011;11762;59.878;17.686;2022-12-18T04:30:05;20.83;;;9.87;;
23187;SDS011;11762;59.878;17.686;2022-12-18T04:32:34;24.13;;;10.63;;
23187;SDS011;11762;59.878;17.686;2022-12-18T04:35:01;30.90;;;10.57;;
23187;SDS011;11762;59.878;17.686;2022-12-18T04:37:31;21.13;;;9.43;;
23187;SDS011;11762;59.878;17.686;2022-12-18T04:39:58;16.80;;;9.70;;
23187;SDS011;11762;59.878;17.686;2022-12-18T04:42:25;23.87;;;9.60;;
23187;SDS011;11762;59.878;17.686;2022-12-18T04:44:52;19.33;;;9.40;;
23187;SDS011;11762;59.878;17.686;2022-12-18T04:47:19;21.80;;;9.23;;
23187;SDS011;11762;59.878;17.686;2022-12-18T04:49:48;23.93;;;10.03;;
23187;SDS011;11762;59.878;17.686;2022-12-18T04:52:15;21.23;;;9.27;;
23187;SDS011;11762;59.878;17.686;2022-12-18T04:54:42;20.07;;;9.33;;
23187;SDS011;11762;59.878;17.686;2022-12-18T04:57:09;23.50;;;9.77;;
23187;SDS011;11762;59.878;17.686;2022-12-18T04:59:36;19.77;;;9.90;;
23187;SDS011;11762;59.878;17.686;2022-12-18T05:02:03;18.43;;;8.93;;
23187;SDS011;11762;59.878;17.686;2022-12-18T05:04:30;19.80;;;9.07;;
23187;SDS011;11762;59.878;17.686;2022-12-18T05:06:58;18.10;;;9.30;;
23187;SDS011;11762;59.878;17.686;2022-12-18T05:09:25;20.93;;;9.53;;
23187;SDS011;11762;59.878;17.686;2022-12-18T05:11:52;20.00;;;9.80;;
23187;SDS011;11762;59.878;17.686;2022-12-18T05:14:20;18.43;;;8.93;;
23187;SDS011;11762;59.878;17.686;2022-12-18T05:16:46;20.73;;;8.90;;
23187;SDS011;11762;59.878;17.686;2022-12-18T05:19:13;23.53;;;9.83;;
23187;SDS011;11762;59.878;17.686;2022-12-18T05:21:40;22.47;;;10.07;;
23187;SDS011;11762;59.878;17.686;2022-12-18T05:24:09;23.63;;;9.50;;
23187;SDS011;11762;59.878;17.686;2022-12-18T05:26:36;16.43;;;8.90;;
23187;SDS011;11762;59.878;17.686;2022-12-18T05:29:03;24.23;;;9.17;;
23187;SDS011;11762;59.878;17.686;2022-12-18T05:31:30;18.73;;;8.57;;
23187;SDS011;11762;59.878;17.686;2022-12-18T05:33:57;30.70;;;11.07;;
23187;SDS011;11762;59.878;17.686;2022-12-18T05:36:24;23.70;;;10.30;;
23187;SDS011;11762;59.878;17.686;2022-12-18T05:38:51;20.17;;;9.47;;
23187;SDS011;11762;59.878;17.686;2022-12-18T05:41:20;23.10;;;9.90;;
23187;SDS011;11762;59.878;17.686;2022-12-18T05:43:47;26.23;;;9.97;;
23187;SDS011;11762;59.878;17.686;2022-12-18T05:46:15;20.00;;;9.63;;
23187;SDS011;11762;59.878;17.686;2022-12-18T05:48:44;21.33;;;10.10;;
23187;SDS011;11762;59.878;17.686;2022-12-18T05:51:11;18.93;;;9.03;;
23187;SDS011;11762;59.878;17.686;2022-12-18T05:53:39;24.73;;;9.97;;
23187;SDS011;11762;59.878;17.686;2022-12-18T05:56:08;22.73;;;9.70;;
23187;SDS011;11762;59.878;17.686;2022-12-18T05:58:37;20.50;;;10.20;;
23187;SDS011;11762;59.878;17.686;2022-12-18T06:01:08;24.77;;;10.43;;
23187;SDS011;11762;59.878;17.686;2022-12-18T06:03:38;20.20;;;8.90;;
23187;SDS011;11762;59.878;17.686;2022-12-18T06:06:12;22.00;;;9.17;;
23187;SDS011;11762;59.878;17.686;2022-12-18T06:08:40;18.60;;;9.23;;
23187;SDS011;11762;59.878;17.686;2022-12-18T06:11:07;17.77;;;9.30;;
23187;SDS011;11762;59.878;17.686;2022-12-18T06:13:34;20.30;;;9.00;;
23187;SDS011;11762;59.878;17.686;2022-12-18T06:16:03;24.63;;;9.40;;
23187;SDS011;11762;59.878;17.686;2022-12-18T06:18:30;21.90;;;9.70;;
23187;SDS011;11762;59.878;17.686;2022-12-18T06:20:58;19.83;;;8.97;;
23187;SDS011;11762;59.878;17.686;2022-12-18T06:23:26;26.63;;;9.77;;
23187;SDS011;11762;59.878;17.686;2022-12-18T06:25:54;20.97;;;9.37;;
23187;SDS011;11762;59.878;17.686;2022-12-18T06:28:21;19.30;;;10.00;;
23187;SDS011;11762;59.878;17.686;2022-12-18T06:30:48;20.73;;;9.27;;
23187;SDS011;11762;59.878;17.686;2022-12-18T06:33:17;17.77;;;9.03;;
23187;SDS011;11762;59.878;17.686;2022-12-18T06:35:44;17.23;;;8.67;;
23187;SDS011;11762;59.878;17.686;2022-12-18T06:38:11;20.63;;;8.53;;
23187;SDS011;11762;59.878;17.686;2022-12-18T06:40:38;24.40;;;9.27;;
23187;SDS011;11762;59.878;17.686;2022-12-18T06:43:05;17.27;;;9.03;;
23187;SDS011;11762;59.878;17.686;2022-12-18T06:45:32;24.83;;;9.67;;
23187;SDS011;11762;59.878;17.686;2022-12-18T06:48:00;21.20;;;9.00;;
23187;SDS011;11762;59.878;17.686;2022-12-18T06:50:28;25.50;;;8.83;;
23187;SDS011;11762;59.878;17.686;2022-12-18T06:52:55;21.83;;;9.70;;
23187;SDS011;11762;59.878;17.686;2022-12-18T06:55:22;20.23;;;9.10;;
23187;SDS011;11762;59.878;17.686;2022-12-18T06:57:49;20.83;;;9.27;;
23187;SDS011;11762;59.878;17.686;2022-12-18T07:00:17;22.57;;;9.27;;
23187;SDS011;11762;59.878;17.686;2022-12-18T07:02:44;21.87;;;9.00;;
23187;SDS011;11762;59.878;17.686;2022-12-18T07:05:11;21.53;;;9.30;;
23187;SDS011;11762;59.878;17.686;2022-12-18T07:07:40;21.23;;;9.60;;
23187;SDS011;11762;59.878;17.686;2022-12-18T07:10:07;18.50;;;9.17;;
23187;SDS011;11762;59.878;17.686;2022-12-18T07:12:34;24.50;;;9.60;;
23187;SDS011;11762;59.878;17.686;2022-12-18T07:15:01;20.03;;;8.83;;
23187;SDS011;11762;59.878;17.686;2022-12-18T07:17:29;19.73;;;8.90;;
23187;SDS011;11762;59.878;17.686;2022-12-18T07:19:56;19.97;;;8.93;;
23187;SDS011;11762;59.878;17.686;2022-12-18T07:22:24;21.30;;;9.83;;
23187;SDS011;11762;59.878;17.686;2022-12-18T07:24:53;22.73;;;10.30;;
23187;SDS011;11762;59.878;17.686;2022-12-18T07:27:20;22.43;;;10.80;;
23187;SDS011;11762;59.878;17.686;2022-12-18T07:29:48;23.50;;;10.23;;
23187;SDS011;11762;59.878;17.686;2022-12-18T07:32:14;19.97;;;9.30;;
23187;SDS011;11762;59.878;17.686;2022-12-18T07:34:41;22.70;;;9.47;;
23187;SDS011;11762;59.878;17.686;2022-12-18T07:37:09;27.67;;;11.50;;
23187;SDS011;11762;59.878;17.686;2022-12-18T07:39:36;22.43;;;10.10;;
23187;SDS011;11762;59.878;17.686;2022-12-18T07:42:04;21.30;;;9.47;;
23187;SDS011;11762;59.878;17.686;2022-12-18T07:44:48;18.87;;;9.20;;
23187;SDS011;11762;59.878;17.686;2022-12-18T07:47:15;19.53;;;9.77;;
23187;SDS011;11762;59.878;17.686;2022-12-18T07:49:42;22.30;;;9.37;;
23187;SDS011;11762;59.878;17.686;2022-12-18T07:52:09;22.73;;;8.67;;
23187;SDS011;11762;59.878;17.686;2022-12-18T07:54:37;19.53;;;8.87;;
23187;SDS011;11762;59.878;17.686;2022-12-18T07:57:06;21.53;;;9.77;;
23187;SDS011;11762;59.878;17.686;2022-12-18T07:59:33;21.20;;;8.67;;
23187;SDS011;11762;59.878;17.686;2022-12-18T08:02:01;21.73;;;10.07;;
23187;SDS011;11762;59.878;17.686;2022-12-18T08:04:28;18.13;;;9.67;;
23187;SDS011;11762;59.878;17.686;2022-12-18T08:06:55;24.33;;;9.33;;
23187;SDS011;11762;59.878;17.686;2022-12-18T08:09:22;20.97;;;9.03;;
23187;SDS011;11762;59.878;17.686;2022-12-18T08:11:49;19.57;;;9.03;;
23187;SDS011;11762;59.878;17.686;2022-12-18T08:14:18;19.50;;;8.57;;
23187;SDS011;11762;59.878;17.686;2022-12-18T08:16:45;19.97;;;9.20;;
23187;SDS011;11762;59.878;17.686;2022-12-18T08:19:12;19.07;;;9.40;;
23187;SDS011;11762;59.878;17.686;2022-12-18T08:21:39;21.00;;;8.40;;
23187;SDS011;11762;59.878;17.686;2022-12-18T08:24:06;22.87;;;9.23;;
23187;SDS011;11762;59.878;17.686;2022-12-18T08:26:35;24.77;;;9.97;;
23187;SDS011;11762;59.878;17.686;2022-12-18T08:29:02;18.97;;;9.47;;
23187;SDS011;11762;59.878;17.686;2022-12-18T08:31:30;22.00;;;9.17;;
23187;SDS011;11762;59.878;17.686;2022-12-18T08:33:58;20.97;;;8.27;;
23187;SDS011;11762;59.878;17.686;2022-12-18T08:36:25;18.63;;;9.53;;
23187;SDS011;11762;59.878;17.686;2022-12-18T08:38:52;20.90;;;9.43;;
23187;SDS011;11762;59.878;17.686;2022-12-18T08:41:19;24.70;;;10.67;;
23187;SDS011;11762;59.878;17.686;2022-12-18T08:43:47;19.17;;;9.53;;
23187;SDS011;11762;59.878;17.686;2022-12-18T08:46:34;23.10;;;10.23;;
23187;SDS011;11762;59.878;17.686;2022-12-18T08:49:03;27.07;;;10.50;;
23187;SDS011;11762;59.878;17.686;2022-12-18T08:51:31;22.53;;;10.37;;
23187;SDS011;11762;59.878;17.686;2022-12-18T08:53:59;25.53;;;10.63;;
23187;SDS011;11762;59.878;17.686;2022-12-18T08:56:26;26.53;;;10.27;;
23187;SDS011;11762;59.878;17.686;2022-12-18T08:58:55;23.03;;;9.60;;
23187;SDS011;11762;59.878;17.686;2022-12-18T09:01:22;20.90;;;9.43;;
23187;SDS011;11762;59.878;17.686;2022-12-18T09:03:51;20.30;;;10.00;;
23187;SDS011;11762;59.878;17.686;2022-12-18T09:06:18;21.27;;;10.00;;
23187;SDS011;11762;59.878;17.686;2022-12-18T09:08:47;25.07;;;11.40;;
23187;SDS011;11762;59.878;17.686;2022-12-18T09:11:15;24.37;;;10.53;;
23187;SDS011;11762;59.878;17.686;2022-12-18T09:13:46;22.80;;;11.43;;
23187;SDS011;11762;59.878;17.686;2022-12-18T09:16:13;19.20;;;10.73;;
23187;SDS011;11762;59.878;17.686;2022-12-18T09:18:40;25.07;;;11.40;;
23187;SDS011;11762;59.878;17.686;2022-12-18T09:21:10;25.17;;;10.70;;
23187;SDS011;11762;59.878;17.686;2022-12-18T09:23:38;24.77;;;11.43;;
23187;SDS011;11762;59.878;17.686;2022-12-18T09:26:05;26.60;;;12.03;;
23187;SDS011;11762;59.878;17.686;2022-12-18T09:28:32;22.07;;;10.63;;
23187;SDS011;11762;59.878;17.686;2022-12-18T09:31:03;21.23;;;10.40;;
23187;SDS011;11762;59.878;17.686;2022-12-18T09:33:31;25.03;;;12.43;;
23187;SDS011;11762;59.878;17.686;2022-12-18T09:36:00;23.90;;;10.70;;
23187;SDS011;11762;59.878;17.686;2022-12-18T09:38:29;25.17;;;11.23;;
23187;SDS011;11762;59.878;17.686;2022-12-18T09:40:57;23.80;;;12.23;;
23187;SDS011;11762;59.878;17.686;2022-12-18T09:43:29;21.20;;;10.10;;
23187;SDS011;11762;59.878;17.686;2022-12-18T09:46:03;21.27;;;9.67;;
23187;SDS011;11762;59.878;17.686;2022-12-18T09:48:34;26.37;;;10.80;;
23187;SDS011;11762;59.878;17.686;2022-12-18T09:51:05;20.83;;;10.50;;
23187;SDS011;11762;59.878;17.686;2022-12-18T09:53:43;19.77;;;10.33;;
23187;SDS011;11762;59.878;17.686;2022-12-18T09:56:15;20.60;;;10.20;;
23187;SDS011;11762;59.878;17.686;2022-12-18T09:58:48;23.50;;;11.57;;
23187;SDS011;11762;59.878;17.686;2022-12-18T10:01:20;26.70;;;12.17;;
23187;SDS011;11762;59.878;17.686;2022-12-18T10:03:49;22.73;;;11.13;;
23187;SDS011;11762;59.878;17.686;2022-12-18T10:06:18;19.00;;;9.77;;
23187;SDS011;11762;59.878;17.686;2022-12-18T10:08:53;19.80;;;9.43;;
23187;SDS011;11762;59.878;17.686;2022-12-18T10:11:28;21.63;;;10.00;;
23187;SDS011;11762;59.878;17.686;2022-12-18T10:14:06;20.37;;;9.80;;
23187;SDS011;11762;59.878;17.686;2022-12-18T10:16:43;21.20;;;10.63;;
23187;SDS011;11762;59.878;17.686;2022-12-18T10:19:22;21.20;;;10.57;;
23187;SDS011;11762;59.878;17.686;2022-12-18T10:22:10;18.30;;;9.63;;
23187;SDS011;11762;59.878;17.686;2022-12-18T10:24:45;22.03;;;9.73;;
23187;SDS011;11762;59.878;17.686;2022-12-18T10:27:21;19.00;;;9.57;;
23187;SDS011;11762;59.878;17.686;2022-12-18T10:29:49;18.63;;;9.43;;
23187;SDS011;11762;59.878;17.686;2022-12-18T10:32:17;19.40;;;9.90;;
23187;SDS011;11762;59.878;17.686;2022-12-18T10:34:47;18.07;;;9.50;;
23187;SDS011;11762;59.878;17.686;2022-12-18T10:37:16;20.63;;;9.77;;
23187;SDS011;11762;59.878;17.686;2022-12-18T10:39:46;19.63;;;9.33;;
23187;SDS011;11762;59.878;17.686;2022-12-18T10:42:30;24.03;;;10.80;;
23187;SDS011;11762;59.878;17.686;2022-12-18T10:45:00;16.83;;;8.70;;
23187;SDS011;11762;59.878;17.686;2022-12-18T10:47:29;28.17;;;10.27;;
23187;SDS011;11762;59.878;17.686;2022-12-18T10:49:56;19.00;;;9.37;;
23187;SDS011;11762;59.878;17.686;2022-12-18T10:52:24;17.33;;;9.37;;
23187;SDS011;11762;59.878;17.686;2022-12-18T10:54:55;22.60;;;10.47;;
23187;SDS011;11762;59.878;17.686;2022-12-18T10:57:30;23.97;;;9.77;;
23187;SDS011;11762;59.878;17.686;2022-12-18T11:00:05;21.47;;;9.40;;
23187;SDS011;11762;59.878;17.686;2022-12-18T11:02:54;20.17;;;9.47;;
23187;SDS011;11762;59.878;17.686;2022-12-18T11:05:29;21.83;;;9.67;;
23187;SDS011;11762;59.878;17.686;2022-12-18T11:07:57;23.13;;;9.53;;
23187;SDS011;11762;59.878;17.686;2022-12-18T11:10:28;18.57;;;8.23;;
23187;SDS011;11762;59.878;17.686;2022-12-18T11:13:08;18.57;;;8.43;;
23187;SDS011;11762;59.878;17.686;2022-12-18T11:15:42;16.70;;;7.70;;
23187;SDS011;11762;59.878;17.686;2022-12-18T11:18:15;14.93;;;8.33;;
23187;SDS011;11762;59.878;17.686;2022-12-18T11:20:49;18.87;;;8.80;;
23187;SDS011;11762;59.878;17.686;2022-12-18T11:23:18;19.80;;;7.87;;
23187;SDS011;11762;59.878;17.686;2022-12-18T11:25:52;21.40;;;9.20;;
23187;SDS011;11762;59.878;17.686;2022-12-18T11:28:28;15.40;;;7.80;;
23187;SDS011;11762;59.878;17.686;2022-12-18T11:31:21;15.27;;;7.13;;
23187;SDS011;11762;59.878;17.686;2022-12-18T11:33:55;16.67;;;7.83;;
23187;SDS011;11762;59.878;17.686;2022-12-18T11:36:28;19.73;;;9.13;;
23187;SDS011;11762;59.878;17.686;2022-12-18T11:38:59;21.23;;;8.87;;
23187;SDS011;11762;59.878;17.686;2022-12-18T11:41:32;19.50;;;8.60;;
23187;SDS011;11762;59.878;17.686;2022-12-18T11:44:21;16.73;;;7.63;;
23187;SDS011;11762;59.878;17.686;2022-12-18T11:46:55;18.17;;;7.10;;
23187;SDS011;11762;59.878;17.686;2022-12-18T11:49:26;15.83;;;7.63;;
23187;SDS011;11762;59.878;17.686;2022-12-18T11:52:00;13.53;;;6.33;;
23187;SDS011;11762;59.878;17.686;2022-12-18T11:54:32;12.80;;;6.90;;
23187;SDS011;11762;59.878;17.686;2022-12-18T11:57:02;15.23;;;6.47;;
23187;SDS011;11762;59.878;17.686;2022-12-18T11:59:36;20.10;;;7.23;;
23187;SDS011;11762;59.878;17.686;2022-12-18T12:02:18;12.17;;;5.77;;
23187;SDS011;11762;59.878;17.686;2022-12-18T12:05:05;13.17;;;5.23;;
23187;SDS011;11762;59.878;17.686;2022-12-18T12:07:52;11.03;;;5.50;;
23187;SDS011;11762;59.878;17.686;2022-12-18T12:10:30;12.13;;;5.13;;
23187;SDS011;11762;59.878;17.686;2022-12-18T12:13:13;20.63;;;6.00;;
23187;SDS011;11762;59.878;17.686;2022-12-18T12:15:51;14.73;;;6.03;;
23187;SDS011;11762;59.878;17.686;2022-12-18T12:18:28;11.10;;;4.43;;
23187;SDS011;11762;59.878;17.686;2022-12-18T12:21:07;10.23;;;4.83;;
23187;SDS011;11762;59.878;17.686;2022-12-18T12:23:53;12.27;;;5.27;;
23187;SDS011;11762;59.878;17.686;2022-12-18T12:26:27;13.57;;;4.57;;
23187;SDS011;11762;59.878;17.686;2022-12-18T12:29:09;11.37;;;4.73;;
23187;SDS011;11762;59.878;17.686;2022-12-18T12:34:47;16.67;;;5.97;;
23187;SDS011;11762;59.878;17.686;2022-12-18T12:37:24;11.87;;;4.63;;
23187;SDS011;11762;59.878;17.686;2022-12-18T12:40:00;15.67;;;5.17;;
23187;SDS011;11762;59.878;17.686;2022-12-18T12:42:30;8.90;;;4.17;;
23187;SDS011;11762;59.878;17.686;2022-12-18T12:45:20;10.70;;;4.63;;
23187;SDS011;11762;59.878;17.686;2022-12-18T12:47:52;11.10;;;4.30;;
23187;SDS011;11762;59.878;17.686;2022-12-18T12:50:20;10.27;;;4.77;;
23187;SDS011;11762;59.878;17.686;2022-12-18T12:52:49;13.30;;;4.17;;
23187;SDS011;11762;59.878;17.686;2022-12-18T12:55:19;16.83;;;4.67;;
23187;SDS011;11762;59.878;17.686;2022-12-18T12:57:50;9.67;;;4.40;;
23187;SDS011;11762;59.878;17.686;2022-12-18T13:00:24;12.70;;;4.93;;
23187;SDS011;11762;59.878;17.686;2022-12-18T13:02:56;9.80;;;3.90;;
23187;SDS011;11762;59.878;17.686;2022-12-18T13:05:31;9.93;;;4.03;;
23187;SDS011;11762;59.878;17.686;2022-12-18T13:08:05;10.73;;;3.83;;
23187;SDS011;11762;59.878;17.686;2022-12-18T13:10:34;9.00;;;4.07;;
23187;SDS011;11762;59.878;17.686;2022-12-18T13:13:03;7.90;;;3.43;;
23187;SDS011;11762;59.878;17.686;2022-12-18T13:15:34;11.37;;;3.50;;
23187;SDS011;11762;59.878;17.686;2022-12-18T13:18:14;10.80;;;3.40;;
23187;SDS011;11762;59.878;17.686;2022-12-18T13:20:44;8.63;;;3.30;;
23187;SDS011;11762;59.878;17.686;2022-12-18T13:23:29;13.47;;;2.83;;
23187;SDS011;11762;59.878;17.686;2022-12-18T13:25:59;10.40;;;2.93;;
23187;SDS011;11762;59.878;17.686;2022-12-18T13:28:59;9.57;;;3.20;;
23187;SDS011;11762;59.878;17.686;2022-12-18T13:34:26;9.10;;;3.07;;
23187;SDS011;11762;59.878;17.686;2022-12-18T13:36:56;7.90;;;2.60;;
23187;SDS011;11762;59.878;17.686;2022-12-18T13:39:43;6.17;;;2.47;;
23187;SDS011;11762;59.878;17.686;2022-12-18T13:48:19;17.27;;;2.60;;
23187;SDS011;11762;59.878;17.686;2022-12-18T13:50:49;8.43;;;2.10;;
23187;SDS011;11762;59.878;17.686;2022-12-18T13:53:20;6.53;;;2.50;;
23187;SDS011;11762;59.878;17.686;2022-12-18T13:55:50;7.50;;;2.40;;
23187;SDS011;11762;59.878;17.686;2022-12-18T13:58:17;9.50;;;2.07;;
23187;SDS011;11762;59.878;17.686;2022-12-18T14:00:44;12.60;;;2.10;;
23187;SDS011;11762;59.878;17.686;2022-12-18T14:03:16;5.97;;;1.83;;
23187;SDS011;11762;59.878;17.686;2022-12-18T14:05:51;6.70;;;2.10;;
23187;SDS011;11762;59.878;17.686;2022-12-18T14:08:21;6.13;;;1.90;;
23187;SDS011;11762;59.878;17.686;2022-12-18T14:10:53;7.90;;;2.03;;
23187;SDS011;11762;59.878;17.686;2022-12-18T14:13:21;12.50;;;2.70;;
23187;SDS011;11762;59.878;17.686;2022-12-18T14:15:53;11.10;;;2.30;;
23187;SDS011;11762;59.878;17.686;2022-12-18T14:18:23;7.13;;;1.90;;
23187;SDS011;11762;59.878;17.686;2022-12-18T14:20:53;13.57;;;2.10;;
23187;SDS011;11762;59.878;17.686;2022-12-18T14:23:27;13.50;;;2.97;;
23187;SDS011;11762;59.878;17.686;2022-12-18T14:25:58;9.40;;;1.90;;
23187;SDS011;11762;59.878;17.686;2022-12-18T14:28:26;11.57;;;1.93;;
23187;SDS011;11762;59.878;17.686;2022-12-18T14:30:53;11.30;;;1.90;;
23187;SDS011;11762;59.878;17.686;2022-12-18T14:33:23;8.37;;;1.80;;
23187;SDS011;11762;59.878;17.686;2022-12-18T14:35:52;5.90;;;1.83;;
23187;SDS011;11762;59.878;17.686;2022-12-18T14:38:22;5.57;;;1.90;;
23187;SDS011;11762;59.878;17.686;2022-12-18T14:40:52;13.83;;;2.80;;
23187;SDS011;11762;59.878;17.686;2022-12-18T14:43:20;6.97;;;1.63;;
23187;SDS011;11762;59.878;17.686;2022-12-18T14:45:48;14.57;;;3.00;;
23187;SDS011;11762;59.878;17.686;2022-12-18T14:48:17;16.27;;;2.20;;
23187;SDS011;11762;59.878;17.686;2022-12-18T14:50:55;13.00;;;2.33;;
23187;SDS011;11762;59.878;17.686;2022-12-18T14:53:28;10.33;;;1.90;;
23187;SDS011;11762;59.878;17.686;2022-12-18T14:56:00;8.53;;;2.43;;
23187;SDS011;11762;59.878;17.686;2022-12-18T14:58:28;4.67;;;1.37;;
23187;SDS011;11762;59.878;17.686;2022-12-18T15:00:55;6.63;;;1.63;;
23187;SDS011;11762;59.878;17.686;2022-12-18T15:03:22;12.47;;;2.13;;
23187;SDS011;11762;59.878;17.686;2022-12-18T15:05:49;10.60;;;2.00;;
23187;SDS011;11762;59.878;17.686;2022-12-18T15:08:31;6.87;;;1.87;;
23187;SDS011;11762;59.878;17.686;2022-12-18T15:11:02;8.43;;;1.83;;
23187;SDS011;11762;59.878;17.686;2022-12-18T15:13:29;13.87;;;2.33;;
23187;SDS011;11762;59.878;17.686;2022-12-18T15:15:57;7.23;;;2.10;;
23187;SDS011;11762;59.878;17.686;2022-12-18T15:18:29;11.10;;;2.23;;
23187;SDS011;11762;59.878;17.686;2022-12-18T15:20:59;7.33;;;1.73;;
23187;SDS011;11762;59.878;17.686;2022-12-18T15:23:36;11.23;;;2.10;;
23187;SDS011;11762;59.878;17.686;2022-12-18T15:26:11;5.70;;;2.23;;
23187;SDS011;11762;59.878;17.686;2022-12-18T15:28:43;9.67;;;2.00;;
23187;SDS011;11762;59.878;17.686;2022-12-18T15:31:24;7.13;;;1.83;;
23187;SDS011;11762;59.878;17.686;2022-12-18T15:34:01;13.40;;;2.30;;
23187;SDS011;11762;59.878;17.686;2022-12-18T15:36:37;7.90;;;2.10;;
23187;SDS011;11762;59.878;17.686;2022-12-18T15:39:05;6.57;;;1.80;;
23187;SDS011;11762;59.878;17.686;2022-12-18T15:41:36;8.03;;;1.97;;
23187;SDS011;11762;59.878;17.686;2022-12-18T15:44:03;9.80;;;1.90;;
23187;SDS011;11762;59.878;17.686;2022-12-18T15:46:47;10.63;;;1.63;;
23187;SDS011;11762;59.878;17.686;2022-12-18T15:49:14;12.90;;;1.77;;
23187;SDS011;11762;59.878;17.686;2022-12-18T15:51:43;11.57;;;2.27;;
23187;SDS011;11762;59.878;17.686;2022-12-18T15:54:13;9.97;;;1.90;;
23187;SDS011;11762;59.878;17.686;2022-12-18T15:56:41;9.43;;;1.73;;
23187;SDS011;11762;59.878;17.686;2022-12-18T15:59:26;12.67;;;2.03;;
23187;SDS011;11762;59.878;17.686;2022-12-18T16:01:53;6.37;;;2.00;;
23187;SDS011;11762;59.878;17.686;2022-12-18T16:04:21;6.53;;;1.43;;
23187;SDS011;11762;59.878;17.686;2022-12-18T16:06:49;6.77;;;1.50;;
23187;SDS011;11762;59.878;17.686;2022-12-18T16:09:19;5.97;;;1.50;;
23187;SDS011;11762;59.878;17.686;2022-12-18T16:11:45;5.40;;;1.77;;
23187;SDS011;11762;59.878;17.686;2022-12-18T16:14:15;9.30;;;2.20;;
23187;SDS011;11762;59.878;17.686;2022-12-18T16:16:44;7.67;;;1.17;;
23187;SDS011;11762;59.878;17.686;2022-12-18T16:19:11;7.00;;;1.27;;
23187;SDS011;11762;59.878;17.686;2022-12-18T16:21:38;12.77;;;1.90;;
23187;SDS011;11762;59.878;17.686;2022-12-18T16:24:08;5.70;;;1.60;;
23187;SDS011;11762;59.878;17.686;2022-12-18T16:26:42;10.10;;;1.47;;
23187;SDS011;11762;59.878;17.686;2022-12-18T16:29:10;8.27;;;1.40;;
23187;SDS011;11762;59.878;17.686;2022-12-18T16:31:37;9.10;;;2.13;;
23187;SDS011;11762;59.878;17.686;2022-12-18T16:34:11;6.60;;;1.47;;
23187;SDS011;11762;59.878;17.686;2022-12-18T16:36:39;5.97;;;1.77;;
23187;SDS011;11762;59.878;17.686;2022-12-18T16:39:06;8.70;;;2.03;;
23187;SDS011;11762;59.878;17.686;2022-12-18T16:41:33;6.27;;;1.80;;
23187;SDS011;11762;59.878;17.686;2022-12-18T16:44:02;14.57;;;1.83;;
23187;SDS011;11762;59.878;17.686;2022-12-18T16:46:29;11.63;;;1.33;;
23187;SDS011;11762;59.878;17.686;2022-12-18T16:48:57;11.43;;;1.53;;
23187;SDS011;11762;59.878;17.686;2022-12-18T16:51:24;11.30;;;2.00;;
23187;SDS011;11762;59.878;17.686;2022-12-18T16:53:52;5.03;;;1.23;;
23187;SDS011;11762;59.878;17.686;2022-12-18T16:56:20;10.77;;;1.57;;
23187;SDS011;11762;59.878;17.686;2022-12-18T16:58:50;7.70;;;1.33;;